Terminal Aerodrome Forecast
Issued by NWS

Home | Current Version | Previous Version | Text Only | Print | Product List | Glossary On
Versions: 1 2 3 4 5 6 7 8 9 10 11 12 13 14
000
FTAK31 PANC 200527
TAFACD
TAF
PACD 200527Z 2006/2106 14010KT P6SM BKN100
     FM201000 13013KT P6SM -RA SCT025 BKN050
     FM201600 12016G23KT 6SM -RA BR SCT010 OVC025
     FM202100 13020G30KT P6SM -RA SCT015 BKN030=

USA.gov is the U.S. government's official web portal to all federal, state and local government web resources and services.